Time;durP1;ratioP1;P1;durP2;ratioP2;P2;SDS_P1;SDS_P2;PMS_P1;PMS_P2;Temp;Humidity;BMP_temperature;BMP_pressure;BME280_temperature;BME280_humidity;BME280_pressure;Samples;Min_cycle;Max_cycle;Signal;HPM_P1;HPM_P2
2022/12/11 07:06:15;;;;;;;21.83;15.57;;;;;;;1.57;94.83;100837.53;5322151;27;20384;-73
2022/12/11 07:08:46;;;;;;;20.80;14.85;;;;;;;1.61;94.38;100836.84;5321154;28;20101;-73
2022/12/11 07:11:19;;;;;;;19.70;14.68;;;;;;;1.63;93.98;100851.09;5322449;28;20028;-74
2022/12/11 07:13:51;;;;;;;23.60;14.75;;;;;;;1.65;94.40;100846.22;5317070;28;20036;-73
2022/12/11 07:16:22;;;;;;;18.33;14.18;;;;;;;1.58;93.81;100850.94;5300917;28;20489;-73
2022/12/11 07:18:53;;;;;;;19.25;15.20;;;;;;;1.62;94.26;100852.16;5300478;28;20028;-74
2022/12/11 07:21:25;;;;;;;24.13;15.80;;;;;;;1.61;93.63;100846.91;5299938;28;20020;-73
2022/12/11 07:23:56;;;;;;;19.23;14.13;;;;;;;1.76;93.69;100854.72;5300943;28;20032;-73
2022/12/11 07:26:28;;;;;;;21.30;14.93;;;;;;;1.78;93.29;100860.78;5300052;28;20048;-74
2022/12/11 07:28:59;;;;;;;20.83;16.33;;;;;;;1.82;93.21;100857.38;5306608;28;20067;-74
2022/12/11 07:31:31;;;;;;;17.20;13.45;;;;;;;1.86;92.31;100865.94;5299106;28;20410;-74
2022/12/11 07:34:04;;;;;;;18.35;14.27;;;;;;;1.91;92.70;100866.06;5298889;28;20081;-75
2022/12/11 07:36:36;;;;;;;16.60;13.60;;;;;;;1.91;92.59;100863.34;5313097;28;20016;-73
2022/12/11 07:39:09;;;;;;;20.50;14.85;;;;;;;1.93;91.74;100858.47;5308969;28;20082;-74
2022/12/11 07:41:40;;;;;;;19.55;13.98;;;;;;;1.98;91.85;100861.34;5300174;28;20036;-73
2022/12/11 07:44:12;;;;;;;20.17;16.00;;;;;;;1.98;92.38;100863.25;5315267;28;20078;-73
2022/12/11 07:46:43;;;;;;;20.98;16.05;;;;;;;1.95;91.35;100857.19;5310718;28;20059;-73
2022/12/11 07:49:17;;;;;;;19.88;14.68;;;;;;;1.99;91.37;100851.22;5319974;28;20391;-73
2022/12/11 07:51:48;;;;;;;19.48;14.13;;;;;;;2.01;92.10;100858.13;5314016;28;20054;-73
2022/12/11 07:54:20;;;;;;;21.58;15.90;;;;;;;2.02;91.57;100857.09;5318928;28;20056;-74
2022/12/11 07:56:51;;;;;;;20.67;15.93;;;;;;;2.01;91.65;100851.84;5316195;28;20381;-75
2022/12/11 07:59:23;;;;;;;21.63;16.27;;;;;;;2.02;91.10;100856.22;5342330;27;20466;-75
2022/12/11 08:01:54;;;;;;;26.48;18.83;;;;;;;2.02;91.61;100865.31;5326745;28;20024;-75
2022/12/11 08:04:25;;;;;;;23.67;15.57;;;;;;;2.06;91.93;100857.44;5313031;28;20087;-74
2022/12/11 08:06:57;;;;;;;20.83;16.40;;;;;;;2.05;92.02;100856.63;5306463;28;20034;-75
2022/12/11 08:09:29;;;;;;;22.92;15.35;;;;;;;2.05;91.92;100856.63;5320668;28;20059;-74
2022/12/11 08:12:00;;;;;;;23.83;16.75;;;;;;;2.04;91.95;100854.09;5320405;28;20465;-74
2022/12/11 08:14:31;;;;;;;20.73;15.75;;;;;;;2.00;91.36;100853.75;5320938;28;20020;-73
2022/12/11 08:17:03;;;;;;;20.15;15.10;;;;;;;2.04;91.60;100860.41;5309571;28;20020;-74
2022/12/11 08:19:34;;;;;;;24.80;16.48;;;;;;;2.03;91.39;100858.75;5305537;28;20024;-74
2022/12/11 08:22:05;;;;;;;20.20;16.52;;;;;;;2.01;91.40;100860.88;5293866;28;20028;-75
2022/12/11 08:24:37;;;;;;;22.35;16.83;;;;;;;2.03;91.60;100853.28;5284559;28;20052;-73
2022/12/11 08:27:08;;;;;;;25.27;16.40;;;;;;;2.04;90.94;100857.66;5291385;28;20024;-74
2022/12/11 08:29:39;;;;;;;26.10;17.50;;;;;;;2.04;91.31;100865.88;5299792;28;20047;-74
2022/12/11 08:32:12;;;;;;;23.02;17.52;;;;;;;2.08;91.87;100861.63;5297235;28;20082;-75
2022/12/11 08:34:46;;;;;;;22.98;15.98;;;;;;;2.04;91.75;100859.56;5292190;28;20039;-74
2022/12/11 08:37:17;;;;;;;25.73;17.17;;;;;;;2.03;91.52;100863.41;5290131;28;20584;-75
2022/12/11 08:39:49;;;;;;;23.08;16.20;;;;;;;2.02;91.27;100862.56;5304269;28;20080;-74
2022/12/11 08:42:20;;;;;;;22.27;16.70;;;;;;;1.99;91.08;100862.19;5306086;28;20016;-73
2022/12/11 08:44:52;;;;;;;22.75;16.50;;;;;;;2.01;91.43;100854.56;5288401;28;20124;-72
2022/12/11 08:47:23;;;;;;;21.55;16.42;;;;;;;2.00;91.14;100858.41;5284615;28;20147;-75
2022/12/11 08:49:55;;;;;;;24.77;16.95;;;;;;;2.06;91.19;100858.28;5285235;28;20100;-73
2022/12/11 08:52:26;;;;;;;19.27;14.95;;;;;;;2.06;91.17;100847.34;5284523;28;20027;-73
2022/12/11 08:54:58;;;;;;;23.35;16.55;;;;;;;2.10;91.29;100847.72;5286867;28;20472;-73
2022/12/11 08:57:29;;;;;;;21.33;15.80;;;;;;;2.12;91.30;100849.16;5306284;28;20031;-74
2022/12/11 09:00:00;;;;;;;19.40;14.80;;;;;;;2.06;90.51;100850.06;5302045;28;20077;-73
2022/12/11 09:02:32;;;;;;;20.00;15.75;;;;;;;2.04;91.24;100852.19;5303469;28;20020;-73
2022/12/11 09:05:06;;;;;;;23.48;17.42;;;;;;;2.07;91.58;100853.63;5300499;28;20503;-72
2022/12/11 09:07:38;;;;;;;26.13;16.33;;;;;;;2.06;91.48;100852.81;5296713;28;20019;-73
2022/12/11 09:10:09;;;;;;;21.42;16.40;;;;;;;2.05;90.75;100842.13;5305717;28;20020;-71
2022/12/11 09:12:41;;;;;;;22.80;17.10;;;;;;;2.08;90.57;100847.94;5297031;28;20028;-72
2022/12/11 09:15:12;;;;;;;20.08;15.73;;;;;;;2.03;90.46;100847.81;5283843;28;20032;-72
2022/12/11 09:17:44;;;;;;;23.48;16.48;;;;;;;2.01;90.95;100847.19;5284617;28;20482;-72
2022/12/11 09:20:15;;;;;;;19.92;16.58;;;;;;;2.00;90.82;100847.44;5284245;28;20063;-72
2022/12/11 09:22:46;;;;;;;22.38;17.23;;;;;;;1.99;nan;100845.75;5287455;28;20029;-73
2022/12/11 09:25:18;;;;;;;24.13;16.25;;;;;;;2.04;90.70;100845.91;5305240;28;20028;-73
2022/12/11 09:27:49;;;;;;;27.45;17.45;;;;;;;1.96;91.36;100856.09;5302783;28;20035;-73
2022/12/11 09:30:20;;;;;;;21.50;16.33;;;;;;;2.05;91.30;100847.59;5302957;28;20020;-73
2022/12/11 09:32:55;;;;;;;27.30;17.15;;;;;;;1.92;90.76;100851.34;5303966;28;20355;-73
2022/12/11 09:35:26;;;;;;;24.10;16.35;;;;;;;1.91;91.17;100849.66;5303889;28;20024;-72
2022/12/11 09:37:57;;;;;;;25.73;16.35;;;;;;;1.92;91.33;100845.88;5304693;28;20030;-73
2022/12/11 09:40:30;;;;;;;22.77;15.75;;;;;;;1.88;92.19;100841.94;5303389;28;20120;-71
2022/12/11 09:43:29;;;;;;;23.27;15.95;;;;;;;2.00;91.90;100842.81;5302667;28;20034;-73
2022/12/11 09:46:05;;;;;;;22.33;15.45;;;;;;;1.96;91.69;100841.59;5300780;28;20039;-73
2022/12/11 09:48:40;;;;;;;22.38;16.30;;;;;;;1.99;91.25;100840.28;5297853;28;20024;-72
2022/12/11 09:51:31;;;;;;;24.10;16.40;;;;;;;2.06;91.70;100841.03;5303706;28;20027;-73
2022/12/11 09:54:05;;;;;;;20.42;15.70;;;;;;;2.05;90.87;100845.69;5301975;28;20020;-73
2022/12/11 09:57:24;;;;;;;24.38;17.58;;;;;;;2.12;91.33;100835.47;5300771;28;20360;-71
2022/12/11 10:00:04;;;;;;;22.52;16.48;;;;;;;2.09;91.21;100824.97;5293020;28;20115;-75
2022/12/11 10:03:06;;;;;;;19.52;15.77;;;;;;;2.13;90.97;100828.91;5299471;28;20024;-74
2022/12/11 10:05:51;;;;;;;23.77;16.73;;;;;;;2.15;90.98;100828.69;5290667;28;20032;-73
2022/12/11 10:08:34;;;;;;;24.38;16.23;;;;;;;2.13;90.77;100834.41;5300577;28;20017;-72
2022/12/11 10:11:48;;;;;;;24.00;17.05;;;;;;;2.19;90.91;100829.88;5300549;28;20105;-71
2022/12/11 10:14:30;;;;;;;22.10;15.48;;;;;;;2.17;91.26;100832.00;5301763;28;20433;-71
2022/12/11 10:17:11;;;;;;;26.42;16.52;;;;;;;2.18;90.46;100833.69;5303879;28;20032;-70
2022/12/11 10:19:42;;;;;;;22.85;15.77;;;;;;;2.22;91.05;100831.31;5303488;28;20059;-70
2022/12/11 10:22:25;;;;;;;21.35;16.00;;;;;;;2.21;90.36;100832.41;5283519;28;20479;-71
2022/12/11 10:24:59;;;;;;;23.73;16.83;;;;;;;2.17;90.36;100835.59;5282133;28;20059;-72
2022/12/11 10:27:34;;;;;;;23.40;16.23;;;;;;;2.11;90.41;100839.25;5283446;28;20029;-72
2022/12/11 10:30:17;;;;;;;19.52;15.60;;;;;;;2.15;91.59;100840.47;5291002;28;20024;-72
2022/12/11 10:33:03;;;;;;;22.15;14.02;;;;;;;2.16;90.67;100833.09;5303889;28;20028;-71
2022/12/11 10:35:38;;;;;;;;;;;;;;;2.30;90.63;100830.97;5304808;28;20417;-71
2022/12/11 10:38:32;;;;;;;21.75;14.88;;;;;;;2.26;91.07;100827.88;5302738;28;20028;-71
2022/12/11 10:41:10;;;;;;;21.77;15.25;;;;;;;2.25;90.30;100823.47;5304070;28;20085;-71
2022/12/11 10:43:48;;;;;;;20.30;14.07;;;;;;;2.25;90.19;100826.22;5303892;28;20032;-71
2022/12/11 10:46:22;;;;;;;21.90;15.13;;;;;;;2.25;90.39;100826.22;5302970;28;20032;-70
2022/12/11 10:48:56;;;;;;;25.17;16.57;;;;;;;2.27;90.06;100820.50;5303666;28;20032;-71
2022/12/11 10:51:33;;;;;;;21.83;15.75;;;;;;;2.25;90.24;100814.41;5299496;28;20023;-76
2022/12/11 10:54:16;;;;;;;27.25;18.55;;;;;;;2.33;89.92;100814.94;5295595;28;20036;-75
2022/12/11 10:56:48;;;;;;;21.20;14.88;;;;;;;2.33;90.02;100803.16;5281618;28;20147;-75
2022/12/11 10:59:29;;;;;;;26.33;18.00;;;;;;;2.34;89.52;100799.34;5281917;28;20103;-76
2022/12/11 11:02:01;;;;;;;23.05;16.77;;;;;;;2.36;89.63;100813.63;5282301;28;20025;-75
2022/12/11 11:04:43;;;;;;;27.83;19.80;;;;;;;2.41;89.25;100808.28;5283165;28;20096;-74
2022/12/11 11:07:18;;;;;;;28.08;16.35;;;;;;;2.39;89.31;100804.94;5282332;28;20047;-75
2022/12/11 11:10:02;;;;;;;25.38;16.42;;;;;;;2.39;88.92;100800.28;5293204;28;20036;-75
2022/12/11 11:12:38;;;;;;;24.90;16.67;;;;;;;2.40;89.11;100801.09;5294826;28;20024;-74
2022/12/11 11:15:18;;;;;;;21.33;16.27;;;;;;;2.44;89.28;100804.22;5324204;28;20015;-74
2022/12/11 11:17:54;;;;;;;22.20;16.25;;;;;;;2.47;88.79;100803.75;5325457;28;20020;-75
2022/12/11 11:20:30;;;;;;;20.77;15.90;;;;;;;2.47;88.94;100801.84;5323082;28;20028;-73
2022/12/11 11:23:13;;;;;;;22.65;16.75;;;;;;;2.45;88.99;100795.75;5289387;28;20536;-75
2022/12/11 11:25:55;;;;;;;24.23;16.08;;;;;;;2.40;88.58;100795.63;5287755;28;20036;-75
2022/12/11 11:28:35;;;;;;;21.05;14.80;;;;;;;2.43;88.38;100797.06;5287673;28;20161;-76
2022/12/11 11:31:15;;;;;;;20.15;14.23;;;;;;;2.47;88.18;100790.06;5303148;28;20028;-76
2022/12/11 11:34:14;;;;;;;21.08;16.55;;;;;;;2.52;89.05;100799.22;5304458;28;20012;-76
2022/12/11 11:36:55;;;;;;;22.73;15.60;;;;;;;2.58;88.23;100790.06;5284162;28;20483;-76
2022/12/11 11:39:34;;;;;;;19.52;14.07;;;;;;;2.57;88.46;100793.03;5287959;28;20024;-75
2022/12/11 11:42:19;;;;;;;20.95;15.90;;;;;;;2.66;88.73;100791.63;5304579;28;20020;-76
2022/12/11 11:45:01;;;;;;;23.20;15.10;;;;;;;2.59;88.42;100783.50;5289467;28;20033;-75
2022/12/11 11:47:44;;;;;;;21.50;16.33;;;;;;;2.55;88.92;100789.69;5305015;28;20025;-75
2022/12/11 11:50:23;;;;;;;22.73;17.35;;;;;;;2.66;88.78;100788.03;5301610;28;20386;-76
2022/12/11 11:53:08;;;;;;;24.63;15.90;;;;;;;2.68;87.90;100777.66;5294964;28;20056;-76
2022/12/11 11:56:04;;;;;;;21.05;15.00;;;;;;;2.77;87.26;100781.72;5299979;28;20035;-76
2022/12/11 11:58:44;;;;;;;21.05;14.68;;;;;;;2.78;87.11;100784.22;5301893;28;20032;-75
2022/12/11 12:01:18;;;;;;;22.27;15.85;;;;;;;2.78;87.00;100778.72;5306534;28;20023;-76
2022/12/11 12:03:51;;;;;;;20.20;14.38;;;;;;;2.71;86.82;100777.19;5308862;28;20415;-75
2022/12/11 12:06:25;;;;;;;24.95;16.33;;;;;;;2.69;87.47;100782.09;5308305;28;20020;-75
2022/12/11 12:09:17;;;;;;;21.60;16.30;;;;;;;2.74;86.72;100779.47;5306298;28;20383;-75
2022/12/11 12:12:04;;;;;;;18.98;15.10;;;;;;;2.69;86.37;100768.41;5305336;28;20027;-74
2022/12/11 12:14:57;;;;;;;49.38;39.38;;;;;;;2.80;86.54;100762.06;5304993;28;20169;-76
2022/12/11 12:17:37;;;;;;;21.80;15.20;;;;;;;2.82;86.59;100768.16;5304592;28;20032;-75
2022/12/11 12:20:39;;;;;;;17.88;14.32;;;;;;;2.83;86.31;100770.63;5293559;28;20020;-74
2022/12/11 12:23:32;;;;;;;18.30;12.65;;;;;;;2.80;85.84;100754.69;5286404;28;20021;-74
2022/12/11 12:26:18;;;;;;;20.60;14.00;;;;;;;2.86;85.82;100758.34;5286448;28;20025;-74
2022/12/11 12:29:01;;;;;;;72.10;54.88;;;;;;;2.85;84.95;100759.44;5300372;28;20024;-75
2022/12/11 12:32:03;;;;;;;27.02;20.15;;;;;;;2.88;85.82;100766.34;5288392;28;20455;-73
2022/12/11 12:35:23;;;;;;;19.50;13.95;;;;;;;2.91;84.95;100753.00;5284267;28;20467;-75
2022/12/11 12:38:33;;;;;;;15.77;12.68;;;;;;;2.91;84.87;100760.38;5274331;28;20039;-75
2022/12/11 12:41:18;;;;;;;16.70;12.55;;;;;;;2.90;84.58;100758.72;5286268;28;20541;-74
2022/12/11 12:44:22;;;;;;;16.07;12.60;;;;;;;2.91;84.20;100761.22;5291261;28;20046;-76
2022/12/11 12:47:10;;;;;;;15.60;13.05;;;;;;;2.91;85.10;100758.47;5291690;28;20109;-77
2022/12/11 12:49:45;;;;;;;18.00;13.13;;;;;;;2.84;84.29;100752.31;5289280;28;20020;-75
2022/12/11 12:52:21;;;;;;;18.30;13.00;;;;;;;2.86;84.44;100761.09;5287691;28;20040;-76
2022/12/11 12:58:02;;;;;;;15.23;12.88;;;;;;;2.82;83.94;100748.97;5285805;28;20527;-76
2022/12/11 13:00:35;;;;;;;17.05;11.95;;;;;;;2.73;83.95;100755.88;5304669;28;20024;-75
2022/12/11 13:03:21;;;;;;;15.90;12.63;;;;;;;2.82;84.39;100755.28;5306459;28;20165;-76
2022/12/11 13:05:59;;;;;;;15.18;12.52;;;;;;;2.78;84.32;100750.50;5288464;28;20087;-77
2022/12/11 13:08:51;;;;;;;17.55;13.77;;;;;;;2.78;84.64;100750.50;5285513;28;20184;-76
2022/12/11 13:11:32;;;;;;;17.17;12.95;;;;;;;2.76;85.08;100752.66;5293823;28;20031;-76
2022/12/11 13:14:26;;;;;;;16.42;13.27;;;;;;;2.77;84.83;100748.88;5284810;28;20024;-75
2022/12/11 13:17:19;;;;;;;16.08;12.50;;;;;;;2.78;84.44;100743.13;5297722;28;20024;-75
2022/12/11 13:20:09;;;;;;;63.65;50.72;;;;;;;2.79;84.62;100746.72;5304565;28;20087;-75
2022/12/11 13:22:54;;;;;;;16.00;12.40;;;;;;;2.83;85.48;100753.38;5296939;28;20483;-75
2022/12/11 13:25:28;;;;;;;19.35;14.98;;;;;;;2.77;85.56;100754.34;5302115;28;20036;-73
2022/12/11 13:28:20;;;;;;;15.25;12.63;;;;;;;2.91;88.39;100747.50;5299777;28;20351;-74
2022/12/11 13:31:00;;;;;;;16.27;12.27;;;;;;;2.80;85.33;100751.13;5285518;28;20029;-73
2022/12/11 13:33:39;;;;;;;16.73;12.13;;;;;;;2.70;84.13;100754.44;5295972;28;20020;-72
2022/12/11 13:36:10;;;;;;;18.05;12.52;;;;;;;2.71;84.28;100755.28;5284678;28;20043;-73
2022/12/11 13:38:57;;;;;;;15.50;12.75;;;;;;;2.66;84.21;100752.44;5299084;28;20027;-73
2022/12/11 13:41:35;;;;;;;43.63;35.25;;;;;;;2.58;85.24;100757.22;5304365;28;20111;-73
2022/12/11 13:44:14;;;;;;;32.15;24.63;;;;;;;2.73;85.18;100758.63;5300543;28;20104;-74
2022/12/11 13:46:46;;;;;;;17.90;14.20;;;;;;;2.66;84.47;100757.91;5287716;28;20028;-74
2022/12/11 13:49:22;;;;;;;18.02;14.82;;;;;;;2.69;84.07;100751.97;5293789;28;20028;-79
2022/12/11 13:51:57;;;;;;;18.38;15.68;;;;;;;2.63;83.46;100764.69;5283768;28;20017;-72
2022/12/11 13:54:31;;;;;;;15.23;12.93;;;;;;;2.64;83.75;100760.06;5283531;28;20163;-71
2022/12/11 13:57:06;;;;;;;17.42;13.25;;;;;;;2.60;84.13;100762.44;5289089;28;20080;-71
2022/12/11 13:59:41;;;;;;;16.88;14.38;;;;;;;2.60;84.05;100763.25;5294848;28;20490;-72
2022/12/11 14:02:12;;;;;;;17.00;14.18;;;;;;;2.59;83.78;100760.78;5287924;28;20028;-72
2022/12/11 14:04:46;;;;;;;16.60;14.13;;;;;;;2.59;82.90;100769.81;5289483;28;20040;-72
2022/12/11 14:07:24;;;;;;;53.42;39.63;;;;;;;2.61;83.56;100766.88;5302781;28;20124;-72
2022/12/11 14:10:20;;;;;;;18.85;15.70;;;;;;;2.58;82.98;100768.16;5298547;28;20499;-72
2022/12/11 14:12:52;;;;;;;17.52;15.38;;;;;;;2.55;82.59;100771.38;5298917;28;20494;-75
2022/12/11 14:15:24;;;;;;;18.13;14.07;;;;;;;2.58;82.79;100762.69;5302623;28;20063;-73
2022/12/11 14:17:57;;;;;;;31.25;23.95;;;;;;;2.51;83.33;100767.44;5300334;28;20033;-72
2022/12/11 14:20:32;;;;;;;16.90;14.15;;;;;;;2.58;82.45;100770.91;5294116;28;20016;-71
2022/12/11 14:23:24;;;;;;;16.52;13.55;;;;;;;2.56;83.32;100764.84;5300762;28;20073;-72
2022/12/11 14:25:59;;;;;;;19.52;15.20;;;;;;;2.52;83.52;100763.63;5297318;28;20020;-72
2022/12/11 14:28:37;;;;;;;17.95;14.60;;;;;;;2.59;84.59;100769.00;5295259;28;20032;-74
2022/12/11 14:31:14;;;;;;;17.00;14.18;;;;;;;2.55;82.99;100770.53;5298766;28;20012;-71
2022/12/11 14:33:51;;;;;;;20.63;15.52;;;;;;;2.59;83.09;100764.34;5302203;28;20046;-72
2022/12/11 14:36:23;;;;;;;17.83;15.00;;;;;;;2.56;83.18;100764.00;5301628;28;20050;-72
2022/12/11 14:39:01;;;;;;;17.98;14.65;;;;;;;2.51;82.67;100772.94;5302180;28;20028;-71
2022/12/11 14:41:48;;;;;;;17.17;13.98;;;;;;;2.48;82.89;100773.41;5300205;28;20077;-73
2022/12/11 14:44:23;;;;;;;17.20;15.25;;;;;;;2.47;83.03;100779.94;5301591;28;20040;-71
2022/12/11 14:47:04;;;;;;;17.25;15.07;;;;;;;2.49;82.05;100786.00;5296680;28;20537;-72
2022/12/11 14:49:54;;;;;;;18.88;15.07;;;;;;;2.55;84.23;100785.06;5297746;28;20028;-72
2022/12/11 14:52:43;;;;;;;22.60;15.98;;;;;;;2.57;83.31;100788.38;5299593;28;20073;-74
2022/12/11 14:55:23;;;;;;;18.65;15.77;;;;;;;2.58;83.64;100784.59;5299553;28;20024;-70
2022/12/11 14:57:58;;;;;;;16.10;14.25;;;;;;;2.69;85.26;100784.84;5300447;28;20024;-71
2022/12/11 15:00:35;;;;;;;18.38;15.90;;;;;;;2.68;83.07;100785.88;5301670;28;20031;-69
2022/12/11 15:03:21;;;;;;;19.95;15.73;;;;;;;2.70;81.37;100792.78;5299052;28;20032;-72
2022/12/11 15:05:55;;;;;;;17.02;14.43;;;;;;;2.49;81.01;100793.41;5300316;28;20043;-71
2022/12/11 15:08:33;;;;;;;16.48;13.77;;;;;;;2.43;80.93;100794.31;5301729;28;20024;-70
2022/12/11 15:11:14;;;;;;;17.58;15.00;;;;;;;2.43;81.24;100792.44;5301767;28;20492;-71
2022/12/11 15:13:56;;;;;;;15.15;13.55;;;;;;;2.42;80.57;100793.50;5302000;28;20103;-72
2022/12/11 15:16:32;;;;;;;15.40;13.73;;;;;;;2.41;78.84;100796.50;5302362;28;20043;-71
2022/12/11 15:19:04;;;;;;;14.85;13.25;;;;;;;2.33;79.41;100798.50;5300734;28;20020;-72
2022/12/11 15:21:36;;;;;;;17.23;15.30;;;;;;;2.42;80.27;100793.50;5300177;28;20066;-72
2022/12/11 15:24:21;;;;;;;17.27;14.65;;;;;;;2.50;79.77;100787.66;5301444;28;20024;-71
2022/12/11 15:26:57;;;;;;;16.38;13.60;;;;;;;2.46;79.82;100794.72;5302508;28;20028;-71
2022/12/11 15:29:37;;;;;;;17.08;14.35;;;;;;;2.44;79.83;100788.63;5305384;28;20115;-71
2022/12/11 15:32:12;;;;;;;18.55;14.25;;;;;;;2.38;80.52;100795.06;5306097;28;20103;-70
2022/12/11 15:34:58;;;;;;;14.60;13.05;;;;;;;2.41;80.54;100796.50;5306812;28;20111;-71
2022/12/11 15:37:32;;;;;;;17.10;13.48;;;;;;;2.27;80.34;100801.34;5307811;28;20024;-72
2022/12/11 15:40:04;;;;;;;16.65;13.75;;;;;;;2.26;80.76;100791.47;5307424;28;20017;-73
2022/12/11 15:42:39;;;;;;;14.95;13.05;;;;;;;2.32;81.33;100798.72;5306544;28;20058;-72
2022/12/11 15:45:17;;;;;;;18.42;14.20;;;;;;;2.33;81.10;100797.69;5306951;28;20034;-72
2022/12/11 15:47:49;;;;;;;14.95;13.40;;;;;;;2.35;81.34;100792.78;5307354;28;20028;-71
2022/12/11 15:50:22;;;;;;;16.83;13.85;;;;;;;2.35;81.75;100800.97;5307035;28;20031;-71
2022/12/11 15:52:55;;;;;;;21.55;14.90;;;;;;;2.37;82.26;100804.31;5307488;28;20110;-72
2022/12/11 15:55:33;;;;;;;17.95;13.98;;;;;;;2.43;82.01;100803.41;5306435;28;20471;-71
2022/12/11 15:58:10;;;;;;;17.65;13.93;;;;;;;2.42;81.68;100807.19;5307628;28;20028;-72
2022/12/11 16:00:43;;;;;;;14.45;11.65;;;;;;;2.43;80.62;100799.81;5305952;28;20024;-72
2022/12/11 16:03:19;;;;;;;22.80;16.75;;;;;;;2.40;80.29;100798.38;5307006;28;20048;-70
2022/12/11 16:05:51;;;;;;;13.98;11.93;;;;;;;2.36;80.44;100802.69;5306778;28;20383;-70
2022/12/11 16:08:35;;;;;;;14.85;12.35;;;;;;;2.37;80.70;100804.31;5306818;28;20069;-71
2022/12/11 16:11:06;;;;;;;29.63;26.88;;;;;;;2.39;80.93;100802.19;5306757;28;20028;-71
2022/12/11 16:13:38;;;;;;;14.40;11.85;;;;;;;2.39;80.71;100802.19;5307246;28;20542;-72
2022/12/11 16:16:09;;;;;;;14.70;12.45;;;;;;;2.36;80.08;100810.88;5305609;28;20106;-71
2022/12/11 16:18:40;;;;;;;19.17;13.55;;;;;;;2.39;80.28;100802.19;5289784;28;20046;-70
2022/12/11 16:21:11;;;;;;;16.75;12.00;;;;;;;2.42;79.74;100806.38;5285561;28;20052;-71
2022/12/11 16:23:43;;;;;;;13.65;11.55;;;;;;;2.37;79.85;100801.59;5284531;28;20032;-70
2022/12/11 16:26:14;;;;;;;13.55;11.52;;;;;;;2.29;80.04;100799.22;5285351;28;20024;-70
2022/12/11 16:28:46;;;;;;;14.82;11.77;;;;;;;2.29;80.38;100797.28;5288053;28;20649;-70
2022/12/11 16:31:17;;;;;;;17.30;13.32;;;;;;;2.42;80.34;100800.88;5305938;28;20043;-71
2022/12/11 16:33:48;;;;;;;16.25;12.85;;;;;;;2.43;79.96;100805.28;5305999;28;20024;-79
2022/12/11 16:36:20;;;;;;;16.77;13.00;;;;;;;2.44;80.58;100796.00;5306831;28;20059;-73
